Time;durP1;ratioP1;P1;durP2;ratioP2;P2;SDS_P1;SDS_P2;PMS_P1;PMS_P2;Temp;Humidity;BMP_temperature;BMP_pressure;BME280_temperature;BME280_humidity;BME280_pressure;Samples;Min_cycle;Max_cycle;Signal;HPM_P1;HPM_P2
2023/06/05 00:03:08;;;;;;;1.85;0.75;;;;;;;19.31;31.94;100404.94;10262849;28;20775;-59
2023/06/05 00:08:10;;;;;;;1.63;0.80;;;;;;;19.29;31.95;100407.00;10235453;28;20125;-59
2023/06/05 00:13:12;;;;;;;2.88;0.95;;;;;;;19.24;31.95;100404.78;10262148;28;20057;-59
2023/06/05 00:18:14;;;;;;;1.63;0.75;;;;;;;19.20;32.07;100405.31;10268083;28;20057;-60
2023/06/05 00:23:16;;;;;;;1.38;0.88;;;;;;;19.17;31.93;100402.97;10263168;28;20650;-59
2023/06/05 00:28:18;;;;;;;1.58;0.70;;;;;;;19.13;31.91;100401.66;10265981;28;20050;-59
2023/06/05 00:33:19;;;;;;;1.45;0.75;;;;;;;19.10;32.04;100399.31;10261764;28;20081;-59
2023/06/05 00:38:21;;;;;;;1.40;0.63;;;;;;;19.05;32.00;100394.44;10251420;28;20923;-58
2023/06/05 00:43:22;;;;;;;2.97;0.80;;;;;;;18.99;31.92;100395.13;10247028;28;20062;-59
2023/06/05 00:48:25;;;;;;;1.65;0.70;;;;;;;18.94;31.88;100384.88;10250370;28;20071;-58
2023/06/05 00:53:29;;;;;;;1.08;0.80;;;;;;;18.93;31.83;100380.50;10244563;28;20061;-59
2023/06/05 00:58:31;;;;;;;0.98;0.60;;;;;;;18.82;31.97;100378.97;10255150;28;20605;-59
2023/06/05 01:03:34;;;;;;;2.28;0.52;;;;;;;18.72;32.10;100384.59;10252307;28;20312;-60
2023/06/05 01:08:41;;;;;;;1.92;0.70;;;;;;;18.58;32.62;100371.00;10259160;28;20050;-59
2023/06/05 01:14:06;;;;;;;1.00;0.60;;;;;;;18.54;33.00;100381.28;10243208;28;20487;-59
2023/06/05 01:19:13;;;;;;;2.67;0.80;;;;;;;18.50;32.91;100371.88;10243515;28;20046;-59
2023/06/05 01:24:15;;;;;;;8.20;1.48;;;;;;;18.51;33.01;100378.91;10255095;28;20081;-59
2023/06/05 01:29:17;;;;;;;3.38;0.77;;;;;;;18.48;33.29;100380.13;10255458;28;20203;-59
2023/06/05 01:34:19;;;;;;;2.83;0.50;;;;;;;18.41;33.17;100372.91;10247132;28;20065;-59
2023/06/05 01:39:22;;;;;;;1.55;1.00;;;;;;;18.44;33.35;100380.63;10249559;28;20635;-59
2023/06/05 01:44:26;;;;;;;2.07;0.90;;;;;;;18.30;33.39;100371.38;10251199;28;20165;-59
2023/06/05 01:49:28;;;;;;;1.35;0.85;;;;;;;18.23;33.84;100373.94;10247342;28;20054;-60
2023/06/05 01:54:33;;;;;;;2.00;0.70;;;;;;;18.18;33.80;100369.06;10255477;28;20059;-60
2023/06/05 01:59:35;;;;;;;1.52;0.82;;;;;;;18.18;33.84;100362.84;10249500;28;20168;-59
2023/06/05 02:04:37;;;;;;;1.38;0.80;;;;;;;18.09;34.43;100366.53;10259783;28;20098;-59
2023/06/05 02:09:38;;;;;;;5.45;2.30;;;;;;;17.97;34.53;100348.03;10253115;28;20149;-60
2023/06/05 02:14:44;;;;;;;2.05;0.95;;;;;;;17.91;34.86;100354.09;10244509;28;20575;-59
2023/06/05 02:19:45;;;;;;;4.75;0.90;;;;;;;17.88;35.35;100361.63;10253184;28;20118;-59
2023/06/05 02:24:47;;;;;;;1.65;1.00;;;;;;;17.87;35.65;100357.28;10255584;28;20073;-59
2023/06/05 02:29:49;;;;;;;2.17;0.70;;;;;;;17.85;35.55;100352.06;10243200;28;20054;-59
2023/06/05 02:34:50;;;;;;;2.47;0.70;;;;;;;17.80;35.50;100349.00;10261858;28;20464;-59
2023/06/05 02:39:52;;;;;;;3.38;0.70;;;;;;;17.72;35.34;100349.84;10243331;28;20057;-59
2023/06/05 02:44:53;;;;;;;1.50;0.80;;;;;;;17.76;35.50;100356.59;10260250;28;20053;-59
2023/06/05 02:49:56;;;;;;;1.92;0.80;;;;;;;17.59;36.09;100354.88;10260627;28;20050;-59
2023/06/05 02:54:57;;;;;;;1.83;0.88;;;;;;;17.42;36.37;100348.66;10262539;28;20061;-59
2023/06/05 02:59:59;;;;;;;1.30;1.10;;;;;;;17.45;36.36;100353.72;10259855;28;20069;-59
2023/06/05 03:05:00;;;;;;;1.67;1.00;;;;;;;17.45;36.79;100351.00;10247661;28;20467;-59
2023/06/05 03:10:02;;;;;;;2.05;1.30;;;;;;;17.35;36.74;100339.56;10247858;28;20295;-59
2023/06/05 03:15:04;;;;;;;1.70;0.82;;;;;;;17.42;36.44;100343.28;10248479;28;20505;-59
2023/06/05 03:20:09;;;;;;;3.22;0.95;;;;;;;17.23;37.18;100342.53;10263698;28;20086;-59
2023/06/05 03:25:10;;;;;;;2.17;0.77;;;;;;;17.16;37.12;100344.25;10250262;28;20055;-59
2023/06/05 03:30:16;;;;;;;2.40;0.90;;;;;;;17.06;37.32;100349.75;10245190;28;20076;-59
2023/06/05 03:35:18;;;;;;;2.17;0.80;;;;;;;16.94;37.96;100351.06;10259871;28;20062;-61
2023/06/05 03:40:19;;;;;;;2.47;1.00;;;;;;;16.92;37.83;100348.53;10260979;28;20664;-59
2023/06/05 03:45:22;;;;;;;2.38;1.08;;;;;;;16.94;38.21;100351.06;10262197;28;20607;-59
2023/06/05 03:50:23;;;;;;;3.05;1.30;;;;;;;16.95;38.40;100356.25;10253858;28;20072;-59
2023/06/05 03:55:25;;;;;;;1.85;1.20;;;;;;;16.81;38.42;100351.47;10263983;28;20644;-59
2023/06/05 04:00:26;;;;;;;3.00;1.30;;;;;;;16.86;38.98;100354.53;10260633;28;20163;-60
2023/06/05 04:05:28;;;;;;;1.45;0.98;;;;;;;16.99;38.53;100362.16;10253133;28;20086;-59
2023/06/05 04:10:29;;;;;;;3.45;1.40;;;;;;;16.94;39.23;100362.63;10256467;28;20078;-59
2023/06/05 04:15:33;;;;;;;1.98;1.00;;;;;;;16.92;39.27;100356.59;10258662;28;20702;-59
2023/06/05 04:20:35;;;;;;;1.93;0.80;;;;;;;16.91;39.34;100357.59;10261053;28;20055;-59
2023/06/05 04:25:36;;;;;;;3.65;1.40;;;;;;;16.90;39.75;100365.81;10249722;28;20130;-59
2023/06/05 04:30:37;;;;;;;2.63;1.00;;;;;;;16.86;39.47;100367.97;10232264;28;20505;-59
2023/06/05 04:35:40;;;;;;;1.55;1.13;;;;;;;16.86;39.89;100359.03;10250981;28;20142;-59
2023/06/05 04:40:41;;;;;;;1.35;1.00;;;;;;;16.92;39.58;100363.84;10243824;28;20062;-60
2023/06/05 04:45:43;;;;;;;1.27;0.77;;;;;;;16.82;39.64;100360.38;10250458;28;20133;-59
2023/06/05 04:50:44;;;;;;;2.50;1.15;;;;;;;16.87;39.65;100366.97;10254752;28;20136;-60
2023/06/05 04:55:46;;;;;;;2.85;1.00;;;;;;;16.86;40.44;100369.78;10255297;28;20489;-61
2023/06/05 05:00:49;;;;;;;2.00;1.02;;;;;;;16.92;40.30;100367.34;10252428;28;21513;-61
2023/06/05 05:05:51;;;;;;;3.17;1.30;;;;;;;16.95;40.17;100369.72;10248051;28;20062;-60
2023/06/05 05:10:53;;;;;;;3.00;1.23;;;;;;;17.02;39.96;100379.81;10258292;28;20054;-64
2023/06/05 05:15:55;;;;;;;2.30;1.15;;;;;;;16.95;39.88;100385.84;10248904;28;20050;-61
2023/06/05 05:20:56;;;;;;;2.15;1.20;;;;;;;17.04;40.21;100377.78;10250833;28;20828;-60
2023/06/05 05:25:58;;;;;;;2.20;1.38;;;;;;;17.11;40.45;100382.38;10258574;28;20699;-60
2023/06/05 05:31:00;;;;;;;1.63;0.98;;;;;;;17.32;39.92;100378.38;10248523;28;20603;-60
2023/06/05 05:36:02;;;;;;;1.45;0.98;;;;;;;17.43;40.13;100371.84;10248236;28;20053;-60
2023/06/05 05:41:03;;;;;;;3.63;1.38;;;;;;;17.58;40.14;100383.66;10251323;28;20137;-59
2023/06/05 05:46:05;;;;;;;5.00;1.17;;;;;;;17.69;40.04;100381.66;10253100;28;20878;-60
2023/06/05 05:51:07;;;;;;;1.48;0.82;;;;;;;17.81;39.73;100391.09;10249912;28;20068;-60
2023/06/05 05:56:09;;;;;;;1.70;1.00;;;;;;;17.90;39.71;100395.50;10253966;28;20050;-60
2023/06/05 06:01:12;;;;;;;2.22;0.82;;;;;;;18.01;39.28;100395.16;10219642;28;20937;-60
2023/06/05 06:06:13;;;;;;;2.70;1.17;;;;;;;18.04;39.72;100393.97;10247232;28;20086;-60
2023/06/05 06:11:16;;;;;;;4.53;1.35;;;;;;;18.16;39.57;100389.91;10250552;28;20058;-60
2023/06/05 06:16:18;;;;;;;2.33;1.07;;;;;;;18.27;39.17;100391.44;10228934;28;20047;-61
2023/06/05 06:21:19;;;;;;;2.22;1.13;;;;;;;18.40;39.85;100390.06;10245725;28;20292;-52
2023/06/05 06:26:21;;;;;;;3.20;0.90;;;;;;;18.62;39.82;100397.44;10247174;28;20145;-52
2023/06/05 06:31:22;;;;;;;3.80;2.60;;;;;;;18.82;39.93;100394.34;10245183;28;20042;-52
2023/06/05 06:36:24;;;;;;;3.00;1.27;;;;;;;18.94;39.32;100395.66;10232810;28;21370;-60
2023/06/05 06:41:26;;;;;;;2.42;1.05;;;;;;;19.02;39.00;100400.19;10245403;28;20128;-59
2023/06/05 06:46:27;;;;;;;1.45;1.00;;;;;;;19.17;38.55;100392.19;10244962;28;20687;-59
2023/06/05 06:51:29;;;;;;;2.65;1.05;;;;;;;19.32;38.14;100401.22;10243744;28;20173;-59
2023/06/05 06:56:30;;;;;;;3.85;1.00;;;;;;;19.52;38.04;100400.78;10247635;28;20108;-62
2023/06/05 07:01:32;;;;;;;2.38;0.70;;;;;;;19.65;37.27;100395.63;10248990;28;20364;-62
2023/06/05 07:06:34;;;;;;;2.53;0.80;;;;;;;19.78;37.23;100398.56;10242380;28;20778;-60
2023/06/05 07:11:36;;;;;;;2.35;0.70;;;;;;;19.96;36.79;100394.75;10239787;28;20606;-60
2023/06/05 07:16:37;;;;;;;2.50;0.88;;;;;;;20.19;36.75;100394.72;10253136;28;20133;-59
2023/06/05 07:21:39;;;;;;;2.13;1.17;;;;;;;20.26;36.07;100394.81;10255847;28;20542;-59
2023/06/05 07:26:40;;;;;;;2.28;1.33;;;;;;;20.42;36.52;100394.66;10257896;28;20804;-60
2023/06/05 07:31:42;;;;;;;3.05;0.77;;;;;;;20.55;35.92;100382.34;10255952;28;20081;-60
2023/06/05 07:36:45;;;;;;;3.55;0.80;;;;;;;20.70;36.05;100383.22;10253979;28;20051;-60
2023/06/05 07:41:48;;;;;;;2.13;1.13;;;;;;;20.76;36.13;100381.63;10252398;28;20058;-59
2023/06/05 07:46:51;;;;;;;3.72;1.00;;;;;;;21.04;36.07;100387.22;10249789;28;20061;-60
2023/06/05 07:51:52;;;;;;;3.08;0.95;;;;;;;21.29;35.67;100389.59;10242517;28;20058;-60
2023/06/05 07:56:57;;;;;;;1.48;0.90;;;;;;;21.40;35.24;100382.84;10227749;28;20054;-60
2023/06/05 08:01:59;;;;;;;3.95;1.10;;;;;;;21.35;35.53;100391.53;10240890;28;20054;-60
2023/06/05 08:07:01;;;;;;;2.30;1.17;;;;;;;21.47;35.41;100394.59;10255381;28;20050;-60
2023/06/05 08:12:04;;;;;;;2.35;1.00;;;;;;;21.67;35.27;100394.81;10256512;28;20542;-61
2023/06/05 08:17:05;;;;;;;2.55;0.80;;;;;;;21.91;34.79;100392.75;10234083;28;20458;-60
2023/06/05 08:22:07;;;;;;;1.10;0.65;;;;;;;22.01;34.64;100396.00;10228769;28;20119;-60
2023/06/05 08:27:09;;;;;;;3.40;1.38;;;;;;;22.01;35.74;100390.56;10253948;28;20137;-60
2023/06/05 08:32:10;;;;;;;2.38;1.15;;;;;;;22.34;34.82;100384.56;10252159;28;20061;-60
2023/06/05 08:37:12;;;;;;;3.22;1.05;;;;;;;22.59;35.01;100377.69;10247442;28;20093;-60
2023/06/05 08:42:18;;;;;;;1.20;0.80;;;;;;;22.91;34.35;100371.78;10240283;28;20054;-60
2023/06/05 08:47:24;;;;;;;1.55;0.90;;;;;;;22.93;34.17;100369.69;10239584;28;20453;-60
2023/06/05 08:52:29;;;;;;;2.97;1.60;;;;;;;23.13;33.84;100367.09;10249527;28;20129;-60
2023/06/05 08:57:34;;;;;;;2.30;1.00;;;;;;;23.34;33.64;100368.81;10248074;28;20610;-60
2023/06/05 09:02:38;;;;;;;2.42;1.00;;;;;;;23.57;33.27;100363.03;10241141;28;20062;-60
2023/06/05 09:07:40;;;;;;;3.90;0.95;;;;;;;23.77;33.04;100359.50;10246672;28;20046;-60
2023/06/05 09:13:02;;;;;;;1.88;1.10;;;;;;;23.88;33.20;100353.47;10250268;28;20061;-60
2023/06/05 09:18:08;;;;;;;1.80;1.03;;;;;;;23.91;33.31;100360.38;10239833;28;20249;-59
2023/06/05 09:23:27;;;;;;;2.15;1.02;;;;;;;24.25;32.58;100348.44;10234872;28;20053;-61
2023/06/05 09:28:30;;;;;;;1.40;1.20;;;;;;;24.31;32.62;100341.31;10233688;28;20100;-60
2023/06/05 09:33:37;;;;;;;2.38;1.10;;;;;;;24.67;31.79;100340.81;10218619;28;20080;-61
2023/06/05 09:38:40;;;;;;;2.90;1.13;;;;;;;24.90;31.54;100339.47;10217954;28;20062;-61
2023/06/05 09:43:42;;;;;;;3.58;1.17;;;;;;;25.22;30.62;100336.81;10247815;28;20073;-62
2023/06/05 09:48:57;;;;;;;2.40;0.80;;;;;;;25.34;29.89;100336.97;10230243;28;20169;-60
2023/06/05 09:53:58;;;;;;;1.52;0.98;;;;;;;25.50;30.43;100330.19;10252189;28;20077;-61
2023/06/05 09:59:02;;;;;;;4.13;1.15;;;;;;;25.80;29.90;100332.28;10244196;28;20844;-59
2023/06/05 10:04:09;;;;;;;3.83;0.88;;;;;;;26.02;29.88;100319.13;10250172;28;20176;-60
2023/06/05 10:09:11;;;;;;;3.95;1.20;;;;;;;26.21;29.56;100318.09;10220083;28;20077;-61
2023/06/05 10:14:14;;;;;;;2.57;0.77;;;;;;;26.21;29.29;100315.34;10243707;28;20419;-61
2023/06/05 10:19:18;;;;;;;1.40;0.95;;;;;;;26.31;29.30;100305.81;10243879;28;20051;-61
2023/06/05 10:24:44;;;;;;;2.72;0.90;;;;;;;26.55;28.17;100312.25;10228161;28;20169;-61
2023/06/05 10:30:03;;;;;;;2.50;1.17;;;;;;;26.79;28.38;100303.16;10229310;28;21264;-61
2023/06/05 10:35:27;;;;;;;2.83;1.08;;;;;;;26.68;28.44;100295.75;10232366;28;20043;-61
2023/06/05 10:40:30;;;;;;;2.55;1.23;;;;;;;26.78;27.82;100285.13;10222595;28;20295;-60
2023/06/05 10:45:32;;;;;;;3.10;1.63;;;;;;;27.07;27.02;100298.16;10230649;28;20201;-60
2023/06/05 10:50:34;;;;;;;3.53;0.80;;;;;;;27.17;26.20;100288.38;10253643;28;20041;-60
2023/06/05 10:55:42;;;;;;;2.47;1.00;;;;;;;27.07;26.90;100292.69;10257081;28;20415;-60
2023/06/05 11:01:23;;;;;;;2.47;1.02;;;;;;;27.27;26.84;100284.22;10253661;28;20060;-60
2023/06/05 11:06:27;;;;;;;2.70;0.98;;;;;;;27.47;26.29;100278.47;10253772;28;21047;-60
2023/06/05 11:11:29;;;;;;;4.30;1.08;;;;;;;27.69;26.29;100284.22;10257191;28;20092;-60
2023/06/05 11:16:31;;;;;;;2.37;1.27;;;;;;;27.75;25.77;100283.28;10227176;28;20140;-60
2023/06/05 11:21:51;;;;;;;;;;;;;;;27.81;25.52;100270.56;10239704;28;20152;-59
2023/06/05 11:26:52;;;;;;;1.77;1.00;;;;;;;27.94;25.26;100269.47;10252146;28;19926;-60
2023/06/05 11:31:54;;;;;;;4.32;1.08;;;;;;;28.01;25.07;100259.28;10253680;28;20121;-60
2023/06/05 11:36:55;;;;;;;5.50;1.53;;;;;;;28.09;24.38;100261.69;10261712;28;20050;-59
2023/06/05 11:41:57;;;;;;;3.03;1.10;;;;;;;27.89;24.05;100244.75;10256641;28;20101;-61
2023/06/05 11:46:59;;;;;;;3.45;1.20;;;;;;;28.04;24.78;100247.88;10238378;28;20566;-60
2023/06/05 11:52:00;;;;;;;2.50;1.03;;;;;;;28.20;24.52;100247.13;10252121;28;20059;-60
2023/06/05 11:57:12;;;;;;;1.60;0.97;;;;;;;28.35;23.31;100237.59;10245774;28;20125;-60
2023/06/05 12:02:21;;;;;;;1.52;0.73;;;;;;;28.24;24.23;100242.03;10252359;28;20054;-60
2023/06/05 12:07:31;;;;;;;3.47;1.00;;;;;;;28.03;22.78;100235.28;10238933;28;20102;-61
2023/06/05 12:12:33;;;;;;;1.67;1.05;;;;;;;28.17;22.95;100231.19;10245951;28;20548;-60
2023/06/05 12:17:35;;;;;;;1.33;1.17;;;;;;;28.20;23.71;100224.41;10241290;28;20898;-61
2023/06/05 12:22:37;;;;;;;3.08;1.33;;;;;;;28.32;23.13;100216.19;10229535;28;20638;-60
2023/06/05 12:27:41;;;;;;;1.85;1.05;;;;;;;28.46;22.73;100223.03;10254402;28;20921;-60
2023/06/05 12:32:44;;;;;;;2.38;1.05;;;;;;;28.47;23.25;100219.22;10248465;28;20054;-52
2023/06/05 12:37:47;;;;;;;1.73;1.10;;;;;;;28.34;22.62;100214.84;10235595;28;20064;-51
2023/06/05 12:42:48;;;;;;;2.83;1.02;;;;;;;28.07;23.11;100209.09;10249414;28;21037;-51
2023/06/05 12:47:51;;;;;;;2.58;1.15;;;;;;;27.74;23.72;100194.09;10248335;28;20054;-51
2023/06/05 12:52:53;;;;;;;1.67;0.85;;;;;;;28.02;23.39;100200.78;10245612;28;20058;-51
2023/06/05 12:57:54;;;;;;;1.90;1.17;;;;;;;28.14;23.08;100187.91;10249745;28;20053;-53
2023/06/05 13:02:56;;;;;;;3.88;1.48;;;;;;;28.20;23.30;100194.31;10252534;28;20058;-52
2023/06/05 13:07:58;;;;;;;1.88;1.25;;;;;;;28.12;22.90;100190.06;10252517;28;20055;-52
2023/06/05 13:13:00;;;;;;;3.65;1.35;;;;;;;28.07;22.26;100183.63;10247567;28;20073;-51
2023/06/05 13:18:01;;;;;;;1.80;1.20;;;;;;;28.07;21.40;100186.38;10248958;28;20062;-51
2023/06/05 13:23:05;;;;;;;3.73;1.53;;;;;;;28.06;23.08;100180.09;10234713;28;20516;-51
2023/06/05 13:28:07;;;;;;;2.95;1.45;;;;;;;27.96;23.46;100174.34;10252983;28;20061;-48
2023/06/05 13:33:08;;;;;;;2.83;1.40;;;;;;;27.94;23.39;100166.41;10253011;28;20058;-51
2023/06/05 13:38:10;;;;;;;2.13;1.70;;;;;;;27.97;24.16;100154.16;10252993;28;20096;-52
2023/06/05 13:43:11;;;;;;;2.38;1.02;;;;;;;27.94;24.09;100155.44;10255205;28;20148;-50
2023/06/05 13:48:12;;;;;;;2.72;1.20;;;;;;;27.86;24.05;100156.66;10249714;28;20054;-50
2023/06/05 13:53:14;;;;;;;3.30;1.20;;;;;;;27.78;23.79;100157.00;10250762;28;20142;-55
2023/06/05 13:58:15;;;;;;;1.30;1.17;;;;;;;27.76;24.11;100150.13;10252056;28;20110;-51
2023/06/05 14:03:17;;;;;;;3.72;1.08;;;;;;;27.69;23.95;100142.06;10251343;28;20076;-50
2023/06/05 14:08:20;;;;;;;3.83;1.13;;;;;;;27.69;23.54;100148.34;10247853;28;20100;-50
2023/06/05 14:13:21;;;;;;;;;;;;;;;27.61;23.77;100145.13;10254404;28;20495;-50
2023/06/05 14:18:25;;;;;;;1.80;1.50;;;;;;;27.57;24.13;100138.50;10249349;28;19973;-50
2023/06/05 14:23:27;;;;;;;1.88;1.20;;;;;;;27.38;23.74;100124.13;10256044;28;20054;-60
2023/06/05 14:28:28;;;;;;;1.63;1.30;;;;;;;27.37;23.63;100128.75;10245155;28;20054;-60
2023/06/05 14:33:30;;;;;;;2.35;1.10;;;;;;;27.32;23.96;100136.78;10258019;28;20108;-60
2023/06/05 14:38:31;;;;;;;1.67;1.10;;;;;;;27.31;23.90;100130.50;10245941;28;20042;-60
2023/06/05 14:43:33;;;;;;;1.67;1.00;;;;;;;27.24;22.95;100135.25;10250516;28;20065;-61
2023/06/05 14:48:35;;;;;;;3.25;1.30;;;;;;;27.11;23.81;100125.41;10262283;28;20046;-60
2023/06/05 14:53:37;;;;;;;2.53;1.33;;;;;;;27.03;23.58;100125.72;10258406;28;20047;-59
2023/06/05 14:58:38;;;;;;;1.53;1.17;;;;;;;27.08;23.54;100122.28;10248046;28;20546;-60
2023/06/05 15:03:40;;;;;;;1.92;1.42;;;;;;;27.05;23.21;100118.13;10260660;28;20105;-59
2023/06/05 15:08:42;;;;;;;1.70;1.43;;;;;;;27.06;23.97;100118.97;10256946;28;20145;-60
2023/06/05 15:13:43;;;;;;;1.60;1.08;;;;;;;27.04;24.26;100113.75;10230136;28;20419;-59
2023/06/05 15:18:46;;;;;;;2.55;1.13;;;;;;;26.96;23.52;100114.94;10260465;28;20058;-60
2023/06/05 15:23:48;;;;;;;3.55;1.02;;;;;;;26.91;23.87;100109.31;10249282;28;20066;-60
2023/06/05 15:28:49;;;;;;;1.90;1.30;;;;;;;26.87;23.54;100112.75;10231248;28;20066;-59
2023/06/05 15:33:51;;;;;;;3.22;1.35;;;;;;;26.86;23.91;100119.28;10249071;28;20117;-59
2023/06/05 15:38:52;;;;;;;2.55;1.35;;;;;;;26.77;24.12;100114.19;10257799;28;20050;-60
2023/06/05 15:43:54;;;;;;;2.63;1.40;;;;;;;26.74;24.22;100108.38;10252139;28;20498;-60
2023/06/05 15:48:56;;;;;;;2.33;1.30;;;;;;;26.68;23.98;100103.81;10237603;28;20644;-61
2023/06/05 15:53:58;;;;;;;1.40;1.15;;;;;;;26.69;23.61;100102.75;10254819;28;20805;-60
2023/06/05 15:59:19;;;;;;;2.95;1.23;;;;;;;26.64;23.60;100095.25;10248047;28;20058;-60
2023/06/05 16:04:21;;;;;;;2.70;1.35;;;;;;;26.62;23.54;100094.66;10240629;28;20065;-60
2023/06/05 16:09:22;;;;;;;2.22;1.73;;;;;;;26.56;23.19;100090.13;10246647;28;20466;-59
2023/06/05 16:14:25;;;;;;;3.55;1.27;;;;;;;26.53;23.01;100085.97;10253185;28;20867;-60
2023/06/05 16:19:26;;;;;;;2.72;1.55;;;;;;;26.49;23.38;100089.38;10251065;28;20060;-60
2023/06/05 16:24:33;;;;;;;2.25;1.70;;;;;;;26.42;23.50;100082.13;10245552;28;20046;-59
2023/06/05 16:29:35;;;;;;;2.50;1.27;;;;;;;26.39;23.46;100088.06;10248241;28;20534;-60
2023/06/05 16:34:36;;;;;;;2.60;1.70;;;;;;;26.36;23.66;100096.72;10235100;28;20063;-60
2023/06/05 16:39:38;;;;;;;3.20;1.40;;;;;;;26.28;23.87;100077.94;10255120;28;20054;-59
2023/06/05 16:44:39;;;;;;;2.70;1.50;;;;;;;26.28;24.08;100088.84;10238701;28;20077;-59
2023/06/05 16:49:40;;;;;;;3.33;1.25;;;;;;;26.23;24.31;100089.53;10249845;28;20594;-60
2023/06/05 16:54:42;;;;;;;1.92;1.33;;;;;;;26.17;24.18;100081.47;10250805;28;20097;-60
2023/06/05 16:59:44;;;;;;;1.92;1.50;;;;;;;26.07;24.07;100082.81;10248897;28;20133;-49
2023/06/05 17:04:45;;;;;;;2.15;1.58;;;;;;;26.03;24.42;100084.34;10252869;28;20054;-49
2023/06/05 17:09:47;;;;;;;3.33;1.27;;;;;;;25.96;24.70;100083.56;10247748;28;20454;-49
2023/06/05 17:14:48;;;;;;;4.43;1.45;;;;;;;25.89;24.94;100085.53;10250214;28;20530;-50
2023/06/05 17:19:50;;;;;;;1.73;1.08;;;;;;;25.85;24.67;100081.59;10244912;28;20057;-50
2023/06/05 17:24:51;;;;;;;3.25;1.70;;;;;;;25.79;24.39;100080.63;10247273;28;20131;-51
2023/06/05 17:29:53;;;;;;;3.58;1.60;;;;;;;25.71;24.97;100079.03;10247025;28;20936;-49
2023/06/05 17:34:55;;;;;;;2.15;1.15;;;;;;;25.67;25.35;100083.28;10247615;28;21077;-50
2023/06/05 17:39:56;;;;;;;3.65;1.35;;;;;;;25.58;24.54;100084.63;10250331;28;20399;-50
2023/06/05 17:44:57;;;;;;;2.88;1.38;;;;;;;25.55;25.21;100088.66;10250943;28;20058;-50
2023/06/05 17:49:59;;;;;;;1.92;1.50;;;;;;;25.45;24.36;100085.63;10245324;28;20142;-50
2023/06/05 17:55:01;;;;;;;3.00;1.33;;;;;;;25.39;25.28;100081.91;10245306;28;20058;-53
2023/06/05 18:00:05;;;;;;;2.20;1.60;;;;;;;25.33;25.51;100077.38;10249280;28;20521;-50
2023/06/05 18:05:06;;;;;;;2.65;1.50;;;;;;;25.29;25.84;100087.00;10249045;28;20054;-50
2023/06/05 18:10:09;;;;;;;3.05;1.58;;;;;;;25.27;25.78;100091.03;10231841;28;20057;-49
2023/06/05 18:15:11;;;;;;;3.05;1.60;;;;;;;25.18;26.12;100090.47;10246372;28;20055;-50
2023/06/05 18:20:12;;;;;;;7.00;2.38;;;;;;;25.12;26.03;100096.81;10249263;28;20065;-50
2023/06/05 18:25:14;;;;;;;2.13;1.55;;;;;;;25.04;26.71;100100.63;10246705;28;20641;-50
2023/06/05 18:30:16;;;;;;;2.17;1.42;;;;;;;25.00;26.60;100096.72;10249987;28;20054;-50
2023/06/05 18:35:19;;;;;;;2.22;1.50;;;;;;;24.87;26.32;100092.19;10231339;28;20062;-51
2023/06/05 18:40:21;;;;;;;2.83;1.40;;;;;;;24.83;26.56;100093.69;10230608;28;20539;-51
2023/06/05 18:45:23;;;;;;;5.22;1.70;;;;;;;24.75;26.35;100099.41;10229802;28;20054;-50
2023/06/05 18:50:24;;;;;;;2.15;1.60;;;;;;;24.62;27.37;100106.63;10253808;28;20054;-50
2023/06/05 18:55:26;;;;;;;4.43;2.38;;;;;;;24.53;27.22;100110.63;10243926;28;20093;-50
2023/06/05 19:00:28;;;;;;;5.22;1.88;;;;;;;24.46;28.04;100121.53;10248868;28;20063;-49
2023/06/05 19:05:29;;;;;;;2.97;2.03;;;;;;;24.34;28.27;100126.00;10250533;28;20230;-50
2023/06/05 19:10:31;;;;;;;2.63;1.55;;;;;;;24.30;28.30;100132.94;10250547;28;20046;-51
2023/06/05 19:15:32;;;;;;;3.50;1.52;;;;;;;24.20;28.92;100130.69;10253461;28;20122;-49
2023/06/05 19:20:34;;;;;;;1.70;1.35;;;;;;;24.17;29.00;100133.84;10251642;28;20170;-51
2023/06/05 19:25:35;;;;;;;2.10;1.35;;;;;;;24.01;29.54;100118.84;10253129;28;20058;-50
2023/06/05 19:30:37;;;;;;;2.22;1.30;;;;;;;24.02;29.29;100125.09;10246890;28;20241;-50
2023/06/05 19:35:38;;;;;;;3.03;2.00;;;;;;;23.95;29.65;100130.59;10258136;28;21112;-49
2023/06/05 19:40:40;;;;;;;2.33;1.60;;;;;;;23.67;30.08;100133.56;10257320;28;20058;-50
2023/06/05 19:45:41;;;;;;;3.08;1.40;;;;;;;23.73;30.13;100132.69;10252595;28;20363;-50
2023/06/05 19:50:43;;;;;;;4.13;1.70;;;;;;;23.65;30.30;100137.31;10240330;28;20547;-50
2023/06/05 19:55:44;;;;;;;3.45;1.95;;;;;;;23.56;30.19;100144.03;10257325;28;20078;-50
2023/06/05 20:00:46;;;;;;;4.75;2.25;;;;;;;23.42;30.35;100145.06;10250089;28;20051;-50
2023/06/05 20:05:47;;;;;;;2.45;1.40;;;;;;;23.30;30.32;100140.28;10254402;28;20054;-60
2023/06/05 20:10:49;;;;;;;2.75;1.90;;;;;;;23.36;30.52;100151.34;10251256;28;20054;-61
2023/06/05 20:15:50;;;;;;;6.03;2.58;;;;;;;23.28;30.60;100147.81;10222199;28;20057;-59
2023/06/05 20:20:54;;;;;;;3.55;1.83;;;;;;;23.09;30.82;100154.91;10235022;28;21036;-61
2023/06/05 20:25:56;;;;;;;3.03;1.50;;;;;;;23.01;30.92;100162.41;10251093;28;20074;-60
2023/06/05 20:31:00;;;;;;;3.67;2.13;;;;;;;23.03;30.82;100160.28;10250876;28;20200;-60
2023/06/05 20:36:05;;;;;;;5.13;1.92;;;;;;;22.85;30.95;100169.91;10231866;28;20050;-60
2023/06/05 20:41:12;;;;;;;4.18;2.05;;;;;;;22.67;31.43;100158.78;10251109;28;20150;-60
2023/06/05 20:46:14;;;;;;;3.95;2.33;;;;;;;22.47;31.92;100167.69;10240213;28;20576;-61
2023/06/05 20:51:20;;;;;;;3.55;1.88;;;;;;;22.55;31.93;100162.09;10253781;28;20060;-61
2023/06/05 20:56:27;;;;;;;4.57;2.05;;;;;;;22.57;32.06;100168.16;10236236;28;20050;-61
2023/06/05 21:01:32;;;;;;;5.57;2.10;;;;;;;22.49;32.10;100181.06;10256146;28;20070;-61
2023/06/05 21:06:35;;;;;;;3.00;1.80;;;;;;;22.46;32.45;100179.63;10252870;28;20053;-60
2023/06/05 21:11:37;;;;;;;3.70;1.95;;;;;;;22.36;32.62;100177.25;10245953;28;20355;-62
2023/06/05 21:16:38;;;;;;;2.50;1.42;;;;;;;22.32;32.64;100181.41;10248117;28;20104;-61
2023/06/05 21:21:43;;;;;;;2.97;2.08;;;;;;;22.35;32.94;100180.19;10258541;28;20102;-60
2023/06/05 21:26:45;;;;;;;3.30;1.73;;;;;;;22.30;33.15;100182.66;10248978;28;20053;-61
2023/06/05 21:31:47;;;;;;;3.10;1.88;;;;;;;22.29;33.18;100186.38;10260964;28;20046;-61
2023/06/05 21:36:48;;;;;;;3.42;1.77;;;;;;;22.19;33.48;100186.78;10257189;28;20157;-61
2023/06/05 21:41:50;;;;;;;3.05;1.90;;;;;;;22.05;34.09;100196.69;10258330;28;20144;-60
2023/06/05 21:46:53;;;;;;;3.08;1.73;;;;;;;22.15;34.45;100201.75;10235120;28;20051;-62
2023/06/05 21:51:55;;;;;;;3.25;1.90;;;;;;;22.19;34.22;100208.47;10246060;28;20051;-60
2023/06/05 21:56:56;;;;;;;3.83;1.90;;;;;;;22.12;34.58;100208.41;10261836;28;20232;-60
2023/06/05 22:01:58;;;;;;;5.28;2.30;;;;;;;22.13;34.67;100212.81;10242729;28;20725;-61
2023/06/05 22:07:00;;;;;;;4.35;2.05;;;;;;;22.09;34.97;100208.81;10264952;28;20057;-60
2023/06/05 22:12:03;;;;;;;4.70;1.77;;;;;;;22.05;35.22;100207.53;10259549;28;20201;-60
2023/06/05 22:17:08;;;;;;;2.73;1.90;;;;;;;22.01;35.32;100217.13;10259871;28;20054;-61
2023/06/05 22:22:10;;;;;;;4.38;1.83;;;;;;;22.00;35.84;100215.44;10260793;28;20093;-61
2023/06/05 22:27:11;;;;;;;5.32;2.25;;;;;;;21.82;36.22;100224.09;10237205;28;20444;-60
2023/06/05 22:32:13;;;;;;;5.35;2.67;;;;;;;21.75;36.62;100224.00;10254190;28;20133;-61
2023/06/05 22:37:15;;;;;;;3.97;2.83;;;;;;;21.77;36.56;100213.84;10262758;28;20059;-61
2023/06/05 22:42:17;;;;;;;3.92;2.05;;;;;;;21.79;36.79;100236.13;10241490;28;20633;-60
2023/06/05 22:47:20;;;;;;;3.28;2.03;;;;;;;21.77;37.25;100232.81;10261769;28;20062;-60
2023/06/05 22:52:24;;;;;;;3.55;2.00;;;;;;;21.75;37.57;100228.59;10248906;28;20165;-61
2023/06/05 22:57:26;;;;;;;4.03;2.43;;;;;;;21.69;37.65;100236.50;10243476;28;20695;-59
2023/06/05 23:02:28;;;;;;;4.38;2.45;;;;;;;21.66;37.78;100230.63;10250769;28;20554;-62
2023/06/05 23:07:30;;;;;;;4.82;2.50;;;;;;;21.63;38.04;100228.31;10249073;28;20554;-61
2023/06/05 23:12:31;;;;;;;3.47;2.40;;;;;;;21.56;37.89;100225.56;10263724;28;20090;-61